createdAt,value
2022-10-16T00:01:46.633Z,47.10
2022-10-16T00:04:15.038Z,49.50
2022-10-16T00:06:43.225Z,40.60
2022-10-16T00:09:11.978Z,27.60
2022-10-16T00:11:41.775Z,27.60
2022-10-16T00:14:15.790Z,24.50
2022-10-16T00:16:44.126Z,26.50
2022-10-16T00:19:13.635Z,31.70
2022-10-16T00:21:41.849Z,23.20
2022-10-16T00:24:11.397Z,24.10
2022-10-16T00:26:41.543Z,24.00
2022-10-16T00:29:10.922Z,23.10
2022-10-16T00:31:39.174Z,20.50
2022-10-16T00:34:07.364Z,21.30
2022-10-16T00:36:35.546Z,22.60
2022-10-16T00:39:04.765Z,19.70
2022-10-16T00:41:33.564Z,16.50
2022-10-16T00:44:22.871Z,15.90
2022-10-16T00:46:51.832Z,16.80
2022-10-16T00:49:21.994Z,13.20
2022-10-16T00:51:55.211Z,19.40
2022-10-16T00:54:32.585Z,14.80
2022-10-16T00:57:04.142Z,16.70
2022-10-16T00:59:37.121Z,16.90
2022-10-16T01:02:07.758Z,15.80
2022-10-16T01:04:41.665Z,15.60
2022-10-16T01:07:31.474Z,17.50
2022-10-16T01:10:27.987Z,17.10
2022-10-16T01:13:02.403Z,17.70
2022-10-16T01:15:58.919Z,14.40
2022-10-16T01:18:40.933Z,17.30
2022-10-16T01:21:23.334Z,15.20
2022-10-16T01:24:27.450Z,20.30
2022-10-16T01:27:20.418Z,14.30
2022-10-16T01:30:02.106Z,16.60
2022-10-16T01:32:30.498Z,17.60
2022-10-16T01:35:01.358Z,19.20
2022-10-16T01:37:50.060Z,16.60
2022-10-16T01:40:22.429Z,15.30
2022-10-16T01:43:06.484Z,16.50
2022-10-16T01:45:37.024Z,13.40
2022-10-16T01:48:10.807Z,20.70
2022-10-16T01:50:42.987Z,15.60
2022-10-16T01:53:14.867Z,15.90
2022-10-16T01:55:47.330Z,15.00
2022-10-16T01:58:16.279Z,16.80
2022-10-16T02:00:48.048Z,12.60
2022-10-16T02:03:21.056Z,13.10
2022-10-16T02:05:57.742Z,14.50
2022-10-16T02:08:29.780Z,15.50
2022-10-16T02:11:01.390Z,14.40
2022-10-16T02:13:39.189Z,15.30
2022-10-16T02:16:08.738Z,13.50
2022-10-16T02:18:37.036Z,14.50
2022-10-16T02:21:24.763Z,13.90
2022-10-16T02:24:14.018Z,15.70
2022-10-16T02:26:52.945Z,17.90
2022-10-16T02:29:25.994Z,16.20
2022-10-16T02:32:00.163Z,15.90
2022-10-16T02:34:31.800Z,16.90
2022-10-16T02:37:03.234Z,14.40
2022-10-16T02:39:32.251Z,13.10
2022-10-16T02:42:00.467Z,12.40
2022-10-16T02:44:28.613Z,14.80
2022-10-16T02:46:56.849Z,15.30
2022-10-16T02:49:25.003Z,13.90
2022-10-16T02:51:53.105Z,17.10
2022-10-16T02:54:21.437Z,16.50
2022-10-16T02:56:49.567Z,14.60
2022-10-16T02:59:17.734Z,13.10
2022-10-16T03:01:45.913Z,15.90
2022-10-16T03:04:14.068Z,17.40
2022-10-16T03:06:42.263Z,15.40
2022-10-16T03:09:10.522Z,16.70
2022-10-16T03:11:38.681Z,17.10
2022-10-16T03:14:06.899Z,12.80
2022-10-16T03:16:35.166Z,19.70
2022-10-16T03:19:03.413Z,12.70
2022-10-16T03:21:31.637Z,16.30
2022-10-16T03:23:59.859Z,12.30
2022-10-16T03:26:28.083Z,14.20
2022-10-16T03:28:56.309Z,19.00
2022-10-16T03:31:24.598Z,16.80
2022-10-16T03:33:52.713Z,18.50
2022-10-16T03:36:20.863Z,14.10
2022-10-16T03:38:49.072Z,12.00
2022-10-16T03:41:17.243Z,15.00
2022-10-16T03:43:45.414Z,15.30
2022-10-16T03:46:13.578Z,17.90
2022-10-16T03:48:41.880Z,18.70
2022-10-16T03:51:10.358Z,16.00
2022-10-16T03:53:38.593Z,14.70
2022-10-16T03:56:07.199Z,15.20
2022-10-16T03:58:35.421Z,13.70
2022-10-16T04:01:03.815Z,14.90
2022-10-16T04:03:32.049Z,12.80
2022-10-16T04:06:00.205Z,17.40
2022-10-16T04:08:28.478Z,14.80
2022-10-16T04:10:56.649Z,15.20
2022-10-16T04:13:25.015Z,14.30
2022-10-16T04:15:53.268Z,15.10
2022-10-16T04:18:21.410Z,12.00
2022-10-16T04:20:49.503Z,11.10
2022-10-16T04:23:17.838Z,14.80
2022-10-16T04:25:45.947Z,20.00
2022-10-16T04:28:14.093Z,13.30
2022-10-16T04:30:42.303Z,12.90
2022-10-16T04:33:11.173Z,14.10
2022-10-16T04:35:39.564Z,14.10
2022-10-16T04:38:07.829Z,14.60
2022-10-16T04:40:37.853Z,15.90
2022-10-16T04:43:06.940Z,13.90
2022-10-16T04:45:35.180Z,16.20
2022-10-16T04:48:03.407Z,13.30
2022-10-16T04:50:31.546Z,12.50
2022-10-16T04:53:08.558Z,15.00
2022-10-16T04:55:37.336Z,14.00
2022-10-16T04:58:05.754Z,17.50
2022-10-16T05:00:34.547Z,14.70
2022-10-16T05:03:02.869Z,14.60
2022-10-16T05:05:30.985Z,13.00
2022-10-16T05:07:59.190Z,20.10
2022-10-16T05:10:27.522Z,15.30
2022-10-16T05:12:55.645Z,13.10
2022-10-16T05:15:26.194Z,18.10
2022-10-16T05:17:56.061Z,15.40
2022-10-16T05:20:24.921Z,15.80
2022-10-16T05:22:53.110Z,20.30
2022-10-16T05:25:21.275Z,17.40
2022-10-16T05:27:50.788Z,16.50
2022-10-16T05:30:19.713Z,14.20
2022-10-16T05:32:50.269Z,15.30
2022-10-16T05:35:20.488Z,14.60
2022-10-16T05:37:49.234Z,21.80
2022-10-16T05:40:18.079Z,14.50
2022-10-16T05:42:46.849Z,17.10
2022-10-16T05:45:15.013Z,18.40
2022-10-16T05:47:43.605Z,21.10
2022-10-16T05:50:11.866Z,14.00
2022-10-16T05:52:40.019Z,21.40
2022-10-16T05:55:08.637Z,15.60
2022-10-16T05:57:36.893Z,14.90
2022-10-16T06:00:06.126Z,16.70
2022-10-16T06:02:41.000Z,14.90
2022-10-16T06:05:09.525Z,16.00
2022-10-16T06:07:37.946Z,20.30
2022-10-16T06:10:06.890Z,16.00
2022-10-16T06:12:35.044Z,14.00
2022-10-16T06:15:03.502Z,16.10
2022-10-16T06:17:31.697Z,11.20
2022-10-16T06:19:59.814Z,14.30
2022-10-16T06:22:28.057Z,16.10
2022-10-16T06:24:56.308Z,16.90
2022-10-16T06:27:24.570Z,16.40
2022-10-16T06:29:53.039Z,17.40
2022-10-16T06:32:21.990Z,13.60
2022-10-16T06:34:50.140Z,12.40
2022-10-16T06:37:18.279Z,15.40
2022-10-16T06:39:46.495Z,16.80
2022-10-16T06:42:14.701Z,15.60
2022-10-16T06:44:43.027Z,16.70
2022-10-16T06:47:12.454Z,15.00
2022-10-16T06:49:40.649Z,14.80
2022-10-16T06:52:08.862Z,15.10
2022-10-16T06:54:42.292Z,14.80
2022-10-16T06:57:11.007Z,11.80
2022-10-16T06:59:39.279Z,13.60
2022-10-16T07:02:08.477Z,17.20
2022-10-16T07:04:37.873Z,16.40
2022-10-16T07:07:08.583Z,17.50
2022-10-16T07:09:38.103Z,17.30
2022-10-16T07:12:06.319Z,12.80
2022-10-16T07:14:34.518Z,13.80
2022-10-16T07:17:03.939Z,14.50
2022-10-16T07:19:34.512Z,13.60
2022-10-16T07:22:04.295Z,13.30
2022-10-16T07:24:32.822Z,13.50
2022-10-16T07:27:01.100Z,14.20
2022-10-16T07:29:29.327Z,13.20
2022-10-16T07:31:57.686Z,18.30
2022-10-16T07:34:25.866Z,16.60
2022-10-16T07:36:54.120Z,14.40
2022-10-16T07:39:22.286Z,11.20
2022-10-16T07:41:50.475Z,18.00
2022-10-16T07:44:18.633Z,13.50
2022-10-16T07:46:48.114Z,18.00
2022-10-16T07:49:16.279Z,12.50
2022-10-16T07:51:44.427Z,17.50
2022-10-16T07:54:12.797Z,15.30
2022-10-16T07:56:43.701Z,12.10
2022-10-16T07:59:12.506Z,11.50
2022-10-16T08:01:43.248Z,12.70
2022-10-16T08:04:11.629Z,17.80
2022-10-16T08:06:41.931Z,17.80
2022-10-16T08:09:10.195Z,17.20
2022-10-16T08:11:38.345Z,18.10
2022-10-16T08:14:06.614Z,12.60
2022-10-16T08:16:34.753Z,15.90
2022-10-16T08:19:03.161Z,15.60
2022-10-16T08:21:31.389Z,16.40
2022-10-16T08:24:00.217Z,17.90
2022-10-16T08:26:28.521Z,14.00
2022-10-16T08:28:57.373Z,16.60
2022-10-16T08:31:27.378Z,19.00
2022-10-16T08:33:55.896Z,14.40
2022-10-16T08:36:24.193Z,20.00
2022-10-16T08:38:54.685Z,14.20
2022-10-16T08:41:35.949Z,12.80
2022-10-16T08:44:25.685Z,14.80
2022-10-16T08:47:11.735Z,10.90
2022-10-16T08:49:44.213Z,11.50
2022-10-16T08:52:15.138Z,13.60
2022-10-16T08:54:48.444Z,16.30
2022-10-16T08:57:25.710Z,16.40
2022-10-16T08:59:56.561Z,15.80
2022-10-16T09:02:28.329Z,11.30
2022-10-16T09:05:16.146Z,11.70
2022-10-16T09:10:54.957Z,11.90
2022-10-16T09:14:13.870Z,13.60
2022-10-16T09:16:49.095Z,11.10
2022-10-16T09:19:37.661Z,13.10
2022-10-16T09:22:19.444Z,8.70
2022-10-16T09:24:47.659Z,11.80
2022-10-16T09:27:16.070Z,59.80
2022-10-16T09:29:44.206Z,10.20
2022-10-16T09:32:19.310Z,11.70
2022-10-16T09:34:58.727Z,11.90
2022-10-16T09:37:27.398Z,16.40
2022-10-16T09:39:56.255Z,12.00
2022-10-16T09:42:32.378Z,12.80
2022-10-16T09:45:00.642Z,10.80
2022-10-16T09:47:30.868Z,13.00
2022-10-16T09:50:07.320Z,16.50
2022-10-16T09:52:35.611Z,11.90
2022-10-16T09:55:17.720Z,12.50
2022-10-16T09:57:53.590Z,10.50
2022-10-16T10:00:23.902Z,11.40
2022-10-16T10:05:30.153Z,11.80
2022-10-16T10:08:01.121Z,12.40
2022-10-16T10:10:33.062Z,10.50
2022-10-16T10:13:02.572Z,11.20
2022-10-16T10:15:42.621Z,12.40
2022-10-16T10:18:23.139Z,9.50
2022-10-16T10:23:35.978Z,15.20
2022-10-16T10:26:06.929Z,8.20
2022-10-16T10:28:54.515Z,16.30
2022-10-16T10:31:29.603Z,11.30
2022-10-16T10:34:25.243Z,16.60
2022-10-16T10:37:24.235Z,12.80
2022-10-16T10:40:21.546Z,15.40
2022-10-16T10:43:05.994Z,10.60
2022-10-16T10:45:44.350Z,12.80
2022-10-16T10:48:12.543Z,8.70
2022-10-16T10:50:50.482Z,9.60
2022-10-16T10:53:30.827Z,13.20
2022-10-16T10:56:26.325Z,9.80
2022-10-16T10:59:13.539Z,12.20
2022-10-16T11:01:56.839Z,12.70
2022-10-16T11:04:56.928Z,12.00
2022-10-16T11:07:32.371Z,11.80
2022-10-16T11:10:16.421Z,11.50
2022-10-16T11:12:53.949Z,10.50
2022-10-16T11:15:32.270Z,15.10
2022-10-16T11:18:08.087Z,11.50
2022-10-16T11:20:43.902Z,13.50
2022-10-16T11:23:19.632Z,8.70
2022-10-16T11:25:51.275Z,18.00
2022-10-16T11:28:49.387Z,13.70
2022-10-16T11:31:24.794Z,14.30
2022-10-16T11:33:58.739Z,19.60
2022-10-16T11:36:34.343Z,14.00
2022-10-16T11:39:17.581Z,17.30
2022-10-16T11:41:51.757Z,12.70
2022-10-16T11:44:57.487Z,12.20
2022-10-16T11:48:05.501Z,13.40
2022-10-16T11:51:04.371Z,12.50
2022-10-16T11:54:00.803Z,15.20
2022-10-16T11:56:32.700Z,13.00
2022-10-16T11:59:08.866Z,12.10
2022-10-16T12:01:44.343Z,17.20
2022-10-16T12:04:34.002Z,15.20
2022-10-16T12:07:15.721Z,21.40
2022-10-16T12:09:44.186Z,21.50
2022-10-16T12:12:31.458Z,16.80
2022-10-16T12:15:40.888Z,12.10
2022-10-16T12:18:25.821Z,12.70
2022-10-16T12:21:07.904Z,12.70
2022-10-16T12:23:48.998Z,16.80
2022-10-16T12:26:29.897Z,16.90
2022-10-16T12:29:16.064Z,19.90
2022-10-16T12:31:57.733Z,17.40
2022-10-16T12:34:35.704Z,10.90
2022-10-16T12:37:24.618Z,11.30
2022-10-16T12:39:57.822Z,18.10
2022-10-16T12:42:29.420Z,16.50
2022-10-16T12:44:58.257Z,13.20
2022-10-16T12:47:32.593Z,12.00
2022-10-16T12:50:03.200Z,13.10
2022-10-16T12:52:40.393Z,17.50
2022-10-16T12:58:17.472Z,10.20
2022-10-16T13:00:59.539Z,13.40
2022-10-16T13:04:00.528Z,14.50
2022-10-16T13:06:47.461Z,13.70
2022-10-16T13:09:50.713Z,15.20
2022-10-16T13:12:18.846Z,16.90
2022-10-16T13:15:03.869Z,10.60
2022-10-16T13:17:44.393Z,16.50
2022-10-16T13:20:37.210Z,14.90
2022-10-16T13:23:08.226Z,9.90
2022-10-16T13:25:52.462Z,28.10
2022-10-16T13:28:24.281Z,16.50
2022-10-16T13:30:55.826Z,14.40
2022-10-16T13:33:40.878Z,12.30
2022-10-16T13:36:22.582Z,15.80
2022-10-16T13:39:22.717Z,16.90
2022-10-16T13:42:09.087Z,10.10
2022-10-16T13:44:47.207Z,14.50
2022-10-16T13:47:20.886Z,12.20
2022-10-16T13:50:05.437Z,11.50
2022-10-16T13:55:04.353Z,12.50
2022-10-16T13:57:32.530Z,15.10
2022-10-16T14:00:00.865Z,11.90
2022-10-16T14:02:40.435Z,12.80
2022-10-16T14:05:15.154Z,14.40
2022-10-16T14:07:43.972Z,10.90
2022-10-16T14:10:24.067Z,17.80
2022-10-16T14:13:18.177Z,10.50
2022-10-16T14:15:52.602Z,10.80
2022-10-16T14:18:33.283Z,12.10
2022-10-16T14:21:08.235Z,10.90
2022-10-16T14:23:42.007Z,13.80
2022-10-16T14:26:10.161Z,12.60
2022-10-16T14:28:41.637Z,15.00
2022-10-16T14:31:37.550Z,11.00
2022-10-16T14:34:25.570Z,12.80
2022-10-16T14:36:53.870Z,10.30
2022-10-16T14:39:25.025Z,9.10
2022-10-16T14:41:56.874Z,12.10
2022-10-16T14:44:34.074Z,13.50
2022-10-16T14:47:17.162Z,10.00
2022-10-16T14:49:45.366Z,10.90
2022-10-16T14:52:15.943Z,10.00
2022-10-16T14:54:44.135Z,9.30
2022-10-16T14:57:19.625Z,13.40
2022-10-16T14:59:49.977Z,13.40
2022-10-16T15:02:32.064Z,16.10
2022-10-16T15:05:17.318Z,11.60
2022-10-16T15:07:46.925Z,11.10
2022-10-16T15:10:16.035Z,14.30
2022-10-16T15:12:44.690Z,11.80
2022-10-16T15:15:25.205Z,9.70
2022-10-16T15:17:58.175Z,10.90
2022-10-16T15:20:37.861Z,10.70
2022-10-16T15:23:13.981Z,11.60
2022-10-16T15:25:56.233Z,8.80
2022-10-16T15:28:27.023Z,12.80
2022-10-16T15:30:57.449Z,18.50
2022-10-16T15:33:29.957Z,16.60
2022-10-16T15:35:58.238Z,15.60
2022-10-16T15:38:28.756Z,13.20
2022-10-16T15:40:58.222Z,17.10
2022-10-16T15:43:26.603Z,11.90
2022-10-16T15:46:06.299Z,14.70
2022-10-16T15:48:34.571Z,18.90
2022-10-16T15:51:07.599Z,34.70
2022-10-16T15:53:36.846Z,23.70
2022-10-16T15:56:10.365Z,25.10
2022-10-16T16:01:10.917Z,21.20
2022-10-16T16:03:43.156Z,19.70
2022-10-16T16:06:13.331Z,15.80
2022-10-16T16:08:41.477Z,18.50
2022-10-16T16:11:13.168Z,36.30
2022-10-16T16:13:42.710Z,18.00
2022-10-16T16:16:14.896Z,17.20
2022-10-16T16:18:44.312Z,15.80
2022-10-16T16:21:14.042Z,22.60
2022-10-16T16:23:42.182Z,17.50
2022-10-16T16:26:16.476Z,22.00
2022-10-16T16:28:44.873Z,27.00
2022-10-16T16:31:13.176Z,21.10
2022-10-16T16:33:41.334Z,17.90
2022-10-16T16:36:15.452Z,18.30
2022-10-16T16:41:14.577Z,19.40
2022-10-16T16:43:43.277Z,20.00
2022-10-16T16:46:12.733Z,21.60
2022-10-16T16:48:41.734Z,18.00
2022-10-16T16:51:17.201Z,21.70
2022-10-16T16:53:47.509Z,47.30
2022-10-16T16:56:16.178Z,25.50
2022-10-16T16:58:52.948Z,24.20
2022-10-16T17:01:22.991Z,17.60
2022-10-16T17:03:53.651Z,17.50
2022-10-16T17:06:24.488Z,18.70
2022-10-16T17:08:53.633Z,24.00
2022-10-16T17:11:25.373Z,21.90
2022-10-16T17:13:56.999Z,18.00
2022-10-16T17:16:29.839Z,22.80
2022-10-16T17:19:04.146Z,31.80
2022-10-16T17:21:33.248Z,31.90
2022-10-16T17:24:02.300Z,41.00
2022-10-16T17:26:31.126Z,41.20
2022-10-16T17:29:02.506Z,52.40
2022-10-16T17:31:34.014Z,43.80
2022-10-16T17:34:05.064Z,32.10
2022-10-16T17:36:36.313Z,36.30
2022-10-16T17:39:08.560Z,26.40
2022-10-16T17:41:37.251Z,29.00
2022-10-16T17:44:07.286Z,21.10
2022-10-16T17:46:40.050Z,39.20
2022-10-16T17:49:11.267Z,30.20
2022-10-16T17:51:39.569Z,25.90
2022-10-16T17:54:08.455Z,38.30
2022-10-16T17:56:36.756Z,27.30
2022-10-16T17:59:05.508Z,24.70
2022-10-16T18:01:37.080Z,17.30
2022-10-16T18:04:15.902Z,17.20
2022-10-16T18:06:45.805Z,35.10
2022-10-16T18:09:18.393Z,30.20
2022-10-16T18:11:47.274Z,24.20
2022-10-16T18:14:18.163Z,34.80
2022-10-16T18:16:46.597Z,32.60
2022-10-16T18:19:14.890Z,39.80
2022-10-16T18:21:43.122Z,84.80
2022-10-16T18:24:11.305Z,36.10
2022-10-16T18:26:39.472Z,20.60
2022-10-16T18:29:08.463Z,18.70
2022-10-16T18:31:39.145Z,17.00
2022-10-16T18:34:10.943Z,16.80
2022-10-16T18:36:40.085Z,16.10
2022-10-16T18:39:11.521Z,17.40
2022-10-16T18:41:44.864Z,16.10
2022-10-16T18:44:14.075Z,20.40
2022-10-16T18:46:42.809Z,16.50
2022-10-16T18:49:11.127Z,24.30
2022-10-16T18:51:41.363Z,22.00
2022-10-16T18:54:13.380Z,31.00
2022-10-16T18:56:41.625Z,26.70
2022-10-16T18:59:10.900Z,23.60
2022-10-16T19:01:40.117Z,20.20
2022-10-16T19:04:11.607Z,33.90
2022-10-16T19:06:46.290Z,24.30
2022-10-16T19:09:17.064Z,23.70
2022-10-16T19:11:46.125Z,26.30
2022-10-16T19:14:16.677Z,38.20
2022-10-16T19:16:45.359Z,28.40
2022-10-16T19:19:18.450Z,31.80
2022-10-16T19:21:48.475Z,28.80
2022-10-16T19:24:17.757Z,31.00
2022-10-16T19:26:45.947Z,38.30
2022-10-16T19:29:14.172Z,36.10
2022-10-16T19:31:42.505Z,34.70
2022-10-16T19:34:11.716Z,26.90
2022-10-16T19:36:41.183Z,34.90
2022-10-16T19:39:15.376Z,22.80
2022-10-16T19:41:47.770Z,33.10
2022-10-16T19:44:17.908Z,30.10
2022-10-16T19:46:50.394Z,35.40
2022-10-16T19:49:21.935Z,30.90
2022-10-16T19:51:52.151Z,36.50
2022-10-16T19:54:20.745Z,28.50
2022-10-16T19:56:48.896Z,32.90
2022-10-16T19:59:19.425Z,34.60
2022-10-16T20:01:47.980Z,37.80
2022-10-16T20:04:17.007Z,34.30
2022-10-16T20:06:46.237Z,33.90
2022-10-16T20:09:14.956Z,33.00
2022-10-16T20:11:43.421Z,35.80
2022-10-16T20:14:11.807Z,32.10
2022-10-16T20:16:43.305Z,26.00
2022-10-16T20:19:11.796Z,35.60
2022-10-16T20:21:40.630Z,29.70
2022-10-16T20:24:08.978Z,32.90
2022-10-16T20:26:40.608Z,29.60
2022-10-16T20:29:08.847Z,34.60
2022-10-16T20:31:37.886Z,53.30
2022-10-16T20:34:10.987Z,52.90
2022-10-16T20:36:42.980Z,49.40
2022-10-16T20:39:13.955Z,38.30
2022-10-16T20:41:42.535Z,33.20
2022-10-16T20:44:15.948Z,38.50
2022-10-16T20:46:44.600Z,31.70
2022-10-16T20:49:28.393Z,25.50
2022-10-16T20:52:00.901Z,27.20
2022-10-16T20:54:29.282Z,26.00
2022-10-16T20:56:58.205Z,22.70
2022-10-16T20:59:26.740Z,21.30
2022-10-16T21:01:55.256Z,19.80
2022-10-16T21:04:23.473Z,20.90
2022-10-16T21:06:51.689Z,22.70
2022-10-16T21:09:19.826Z,16.30
2022-10-16T21:11:48.027Z,20.80
2022-10-16T21:14:16.877Z,24.20
2022-10-16T21:16:45.045Z,16.90
2022-10-16T21:19:13.251Z,19.30
2022-10-16T21:21:41.483Z,26.90
2022-10-16T21:24:12.288Z,19.80
2022-10-16T21:26:44.265Z,17.40
2022-10-16T21:29:13.014Z,17.20
2022-10-16T21:31:41.967Z,16.40
2022-10-16T21:34:10.272Z,19.40
2022-10-16T21:36:41.393Z,19.00
2022-10-16T21:39:13.026Z,17.30
2022-10-16T21:41:43.302Z,19.10
2022-10-16T21:44:12.547Z,19.20
2022-10-16T21:46:43.037Z,27.60
2022-10-16T21:49:19.833Z,31.70
2022-10-16T21:51:50.682Z,17.10
2022-10-16T21:54:22.021Z,15.60
2022-10-16T21:56:52.783Z,19.20
2022-10-16T21:59:21.470Z,16.50
2022-10-16T22:01:53.423Z,23.80
2022-10-16T22:04:21.653Z,17.20
2022-10-16T22:06:49.906Z,18.90
2022-10-16T22:09:18.094Z,18.30
2022-10-16T22:11:46.363Z,16.10
2022-10-16T22:14:17.470Z,25.00
2022-10-16T22:16:47.090Z,34.90
2022-10-16T22:19:17.899Z,18.20
2022-10-16T22:21:48.930Z,20.80
2022-10-16T22:24:17.983Z,18.20
2022-10-16T22:26:46.189Z,18.60
2022-10-16T22:29:15.742Z,18.20
2022-10-16T22:31:44.923Z,20.40
2022-10-16T22:34:14.685Z,22.00
2022-10-16T22:36:43.046Z,14.00
2022-10-16T22:39:11.458Z,32.60
2022-10-16T22:41:39.654Z,18.40
2022-10-16T22:44:12.230Z,20.70
2022-10-16T22:46:41.227Z,21.80
2022-10-16T22:49:09.407Z,17.10
2022-10-16T22:51:37.749Z,19.30
2022-10-16T22:54:06.006Z,15.90
2022-10-16T22:56:34.161Z,16.30
2022-10-16T22:59:02.315Z,15.30
2022-10-16T23:01:34.674Z,18.50
2022-10-16T23:04:03.647Z,16.90
2022-10-16T23:06:31.961Z,15.30
2022-10-16T23:09:01.774Z,23.40
2022-10-16T23:11:31.032Z,18.70
2022-10-16T23:13:59.282Z,14.60
2022-10-16T23:16:27.446Z,15.80
2022-10-16T23:18:55.635Z,19.40
2022-10-16T23:21:25.314Z,13.20
2022-10-16T23:23:54.971Z,20.00
2022-10-16T23:26:25.518Z,24.10
2022-10-16T23:28:57.739Z,27.50
2022-10-16T23:31:27.703Z,25.50
2022-10-16T23:33:57.414Z,18.30
2022-10-16T23:36:26.066Z,21.60
2022-10-16T23:38:54.853Z,19.90
2022-10-16T23:41:23.210Z,20.20
2022-10-16T23:43:52.122Z,22.90
2022-10-16T23:46:20.426Z,18.80
2022-10-16T23:48:48.714Z,24.00
2022-10-16T23:51:17.378Z,13.90
2022-10-16T23:53:45.729Z,19.60
2022-10-16T23:56:14.975Z,15.90
2022-10-16T23:58:43.137Z,21.00
